Time;durP1;ratioP1;P1;durP2;ratioP2;P2;SDS_P1;SDS_P2;PMS_P1;PMS_P2;Temp;Humidity;BMP_temperature;BMP_pressure;BME280_temperature;BME280_humidity;BME280_pressure;Samples;Min_cycle;Max_cycle;Signal;HPM_P1;HPM_P2
2023/02/02 00:01:52;;;;;;;0.30;0.30;;;;;;;3.50;79.83;99226.34;5093923;28;20127;-67
2023/02/02 00:04:24;;;;;;;0.30;0.30;;;;;;;3.43;80.51;99232.09;5094054;28;20513;-67
2023/02/02 00:06:55;;;;;;;0.55;0.55;;;;;;;3.39;80.38;99240.41;5093856;28;20078;-67
2023/02/02 00:09:27;;;;;;;0.30;0.30;;;;;;;3.37;81.11;99247.09;5094270;28;20075;-67
2023/02/02 00:11:58;;;;;;;0.30;0.30;;;;;;;3.35;81.20;99233.59;5094233;28;20040;-67
2023/02/02 00:14:27;;;;;;;0.20;0.20;;;;;;;3.35;81.44;99223.50;5094484;28;20440;-67
2023/02/02 00:16:56;;;;;;;0.25;0.25;;;;;;;3.37;82.04;99211.78;5093752;28;20490;-67
2023/02/02 00:19:28;;;;;;;;;;;;;;;3.39;81.41;99205.94;5094512;28;20044;-67
2023/02/02 00:21:58;;;;;;;0.30;0.30;;;;;;;3.39;81.18;99220.22;5094109;28;19927;-67
2023/02/02 00:24:27;;;;;;;0.32;0.32;;;;;;;3.35;81.32;99226.03;5093640;28;20127;-67
2023/02/02 00:26:59;;;;;;;0.47;0.47;;;;;;;3.29;81.83;99219.19;5093635;28;20051;-67
2023/02/02 00:29:29;;;;;;;0.40;0.40;;;;;;;3.21;81.75;99210.63;5093730;28;20067;-67
2023/02/02 00:31:59;;;;;;;0.30;0.30;;;;;;;3.19;81.33;99216.47;5093976;28;20067;-67
2023/02/02 00:34:29;;;;;;;0.40;0.40;;;;;;;3.21;81.99;99235.00;5093656;28;20127;-67
2023/02/02 00:36:58;;;;;;;1.05;1.05;;;;;;;3.23;81.65;99228.28;5093857;28;20135;-67
2023/02/02 00:39:26;;;;;;;0.33;0.33;;;;;;;3.19;81.23;99231.59;5093885;28;20115;-67
2023/02/02 00:41:55;;;;;;;0.38;0.38;;;;;;;3.09;81.51;99228.03;5095189;28;20081;-67
2023/02/02 00:47:04;;;;;;;0.40;0.40;;;;;;;2.94;82.42;99250.34;5096522;28;20093;-67
2023/02/02 00:49:34;;;;;;;1.02;0.98;;;;;;;2.94;82.84;99254.53;5097653;28;20044;-67
2023/02/02 00:52:04;;;;;;;0.40;0.40;;;;;;;2.87;82.31;99245.13;5097666;28;20047;-67
2023/02/02 00:54:32;;;;;;;0.40;0.40;;;;;;;2.97;82.75;99252.94;5096422;28;20067;-67
2023/02/02 00:57:03;;;;;;;0.30;0.30;;;;;;;2.99;82.58;99263.06;5097846;28;20460;-67
2023/02/02 00:59:32;;;;;;;0.40;0.40;;;;;;;2.98;82.99;99256.31;5097370;28;20040;-68
2023/02/02 01:02:00;;;;;;;0.80;0.80;;;;;;;2.99;82.29;99258.03;5097426;28;20352;-66
2023/02/02 01:04:30;;;;;;;0.30;0.30;;;;;;;2.96;82.42;99260.47;5113210;28;20035;-67
2023/02/02 01:07:00;;;;;;;0.60;0.60;;;;;;;2.98;82.58;99256.31;5097271;28;20081;-67
2023/02/02 01:09:30;;;;;;;0.30;0.30;;;;;;;3.05;83.40;99253.09;5097968;28;20600;-67
2023/02/02 01:11:59;;;;;;;0.30;0.30;;;;;;;3.06;82.85;99235.50;5097645;28;20072;-68
2023/02/02 01:14:28;;;;;;;0.32;0.32;;;;;;;3.08;82.54;99238.91;5097226;28;20342;-67
2023/02/02 01:16:57;;;;;;;0.82;0.82;;;;;;;3.09;83.02;99244.81;5097143;28;20040;-68
2023/02/02 01:19:27;;;;;;;0.47;0.47;;;;;;;3.11;83.18;99258.28;5097147;28;20130;-67
2023/02/02 01:21:55;;;;;;;0.97;0.97;;;;;;;3.16;82.51;99246.63;5096171;28;20494;-67
2023/02/02 01:24:26;;;;;;;0.40;0.40;;;;;;;3.18;82.86;99239.94;5095780;28;20036;-67
2023/02/02 01:26:56;;;;;;;0.40;0.40;;;;;;;3.12;82.43;99234.78;5096996;28;20279;-67
2023/02/02 01:29:25;;;;;;;0.30;0.30;;;;;;;3.01;82.74;99248.81;5096855;28;20037;-67
2023/02/02 01:31:54;;;;;;;0.30;0.30;;;;;;;3.06;82.53;99244.72;5097251;28;20375;-67
2023/02/02 01:34:23;;;;;;;0.30;0.30;;;;;;;3.04;83.10;99246.38;5097172;28;20048;-67
2023/02/02 01:36:52;;;;;;;0.35;0.35;;;;;;;3.01;82.75;99242.13;5096802;28;20060;-67
2023/02/02 01:39:21;;;;;;;0.40;0.40;;;;;;;2.99;83.25;99237.84;5096760;28;20042;-67
2023/02/02 01:41:51;;;;;;;0.50;0.50;;;;;;;2.97;82.67;99229.41;5095550;28;20036;-67
2023/02/02 01:44:47;;;;;;;0.20;0.20;;;;;;;3.03;83.17;99224.50;5096607;28;20051;-67
2023/02/02 01:47:17;;;;;;;0.28;0.28;;;;;;;3.03;82.44;99219.44;5056567;28;20040;-67
2023/02/02 01:49:46;;;;;;;0.73;0.68;;;;;;;3.08;82.83;99217.88;5095550;28;20131;-67
2023/02/02 01:52:18;;;;;;;0.40;0.40;;;;;;;2.96;82.53;99193.28;5096436;28;20044;-67
2023/02/02 01:54:50;;;;;;;0.28;0.28;;;;;;;3.10;82.80;99206.16;5096786;28;20062;-67
2023/02/02 01:57:27;;;;;;;0.40;0.40;;;;;;;3.16;82.63;99219.78;5097041;28;20042;-67
2023/02/02 01:59:59;;;;;;;0.30;0.30;;;;;;;3.19;82.16;99222.31;5096122;28;20094;-67
2023/02/02 02:02:30;;;;;;;0.40;0.40;;;;;;;3.16;81.88;99211.34;5095311;28;20047;-67
2023/02/02 02:05:01;;;;;;;0.28;0.28;;;;;;;3.19;81.73;99217.28;5095039;28;20075;-67
2023/02/02 02:07:31;;;;;;;0.30;0.30;;;;;;;3.22;81.84;99221.53;5096315;28;20120;-67
2023/02/02 02:10:00;;;;;;;0.30;0.30;;;;;;;3.21;81.60;99223.25;5094905;28;20044;-67
2023/02/02 02:12:31;;;;;;;0.32;0.32;;;;;;;3.22;82.58;99224.06;5094940;28;20048;-67
2023/02/02 02:17:59;;;;;;;0.30;0.30;;;;;;;3.24;82.23;99210.66;5094917;28;20117;-67
2023/02/02 02:27:34;;;;;;;0.40;0.40;;;;;;;3.22;81.92;99231.63;5076399;28;20082;-67
2023/02/02 02:30:23;;;;;;;0.30;0.30;;;;;;;3.19;82.36;99231.59;5094603;28;20059;-67
2023/02/02 02:33:01;;;;;;;0.40;0.40;;;;;;;3.24;82.70;99238.41;5094618;28;20040;-67
2023/02/02 02:35:36;;;;;;;0.77;0.77;;;;;;;3.24;82.42;99250.16;5094825;28;20040;-67
2023/02/02 02:38:11;;;;;;;0.40;0.40;;;;;;;3.23;82.55;99240.91;5094479;28;20058;-68
2023/02/02 02:40:45;;;;;;;0.38;0.38;;;;;;;3.22;82.23;99246.75;5094338;28;20090;-68
2023/02/02 02:43:20;;;;;;;0.30;0.30;;;;;;;3.22;81.92;99239.19;5095915;28;20489;-68
2023/02/02 02:45:50;;;;;;;0.30;0.30;;;;;;;3.20;82.59;99235.78;5095534;28;20048;-67
2023/02/02 02:48:21;;;;;;;0.22;0.22;;;;;;;3.14;82.61;99240.72;5094273;28;20063;-67
2023/02/02 02:50:50;;;;;;;0.45;0.45;;;;;;;3.15;82.33;99237.34;5095379;28;20055;-67
2023/02/02 02:53:22;;;;;;;0.37;0.37;;;;;;;3.15;82.02;99253.34;5094207;28;20102;-67
2023/02/02 02:56:00;;;;;;;0.20;0.20;;;;;;;3.17;82.58;99258.41;5094430;28;20445;-67
2023/02/02 02:58:36;;;;;;;0.50;0.50;;;;;;;3.09;82.12;99244.81;5095602;28;20052;-67
2023/02/02 03:01:14;;;;;;;0.30;0.30;;;;;;;3.00;81.70;99254.69;5093799;28;20080;-67
2023/02/02 03:04:01;;;;;;;0.30;0.30;;;;;;;2.87;82.70;99258.59;5093788;28;20048;-67
2023/02/02 03:06:37;;;;;;;0.40;0.40;;;;;;;2.75;82.04;99257.47;5095423;28;20452;-67
2023/02/02 03:09:11;;;;;;;0.40;0.40;;;;;;;2.68;82.55;99256.47;5095123;28;20123;-67
2023/02/02 03:11:40;;;;;;;1.00;1.00;;;;;;;2.66;83.01;99263.97;5095276;28;20096;-67
2023/02/02 03:14:09;;;;;;;0.30;0.30;;;;;;;2.68;83.77;99269.94;5094959;28;20051;-67
2023/02/02 03:16:38;;;;;;;0.40;0.40;;;;;;;2.70;83.14;99263.25;5094865;28;20036;-67
2023/02/02 03:19:08;;;;;;;0.50;0.50;;;;;;;2.70;84.14;99268.28;5094841;28;20089;-67
2023/02/02 03:21:37;;;;;;;0.30;0.30;;;;;;;2.69;83.52;99269.09;5094791;28;20071;-67
2023/02/02 03:24:06;;;;;;;0.57;0.57;;;;;;;2.70;84.18;99265.78;5094681;28;20040;-67
2023/02/02 03:26:35;;;;;;;1.10;0.93;;;;;;;2.70;83.72;99275.00;5094666;28;20118;-67
2023/02/02 03:29:04;;;;;;;0.40;0.40;;;;;;;2.71;84.00;99276.72;5094985;28;20040;-67
2023/02/02 03:31:33;;;;;;;1.65;1.13;;;;;;;2.72;84.89;99281.78;5094609;28;20044;-67
2023/02/02 03:34:02;;;;;;;0.30;0.30;;;;;;;2.80;84.15;99281.09;5094503;28;20040;-67
2023/02/02 03:36:32;;;;;;;0.30;0.30;;;;;;;2.81;84.42;99270.22;5094522;28;20051;-67
2023/02/02 03:39:01;;;;;;;0.30;0.30;;;;;;;2.81;84.89;99278.59;5094509;28;20052;-67
2023/02/02 03:41:30;;;;;;;0.30;0.30;;;;;;;2.80;85.11;99265.97;5095256;28;20048;-67
2023/02/02 03:43:59;;;;;;;0.38;0.38;;;;;;;2.76;84.96;99275.13;5094384;28;20040;-67
2023/02/02 03:46:27;;;;;;;0.55;0.55;;;;;;;2.72;84.80;99276.72;5094375;28;20040;-67
2023/02/02 03:48:56;;;;;;;0.37;0.37;;;;;;;2.69;85.14;99279.16;5093071;28;20040;-67
2023/02/02 03:51:25;;;;;;;0.30;0.30;;;;;;;2.71;85.39;99275.00;5094320;28;20038;-67
2023/02/02 03:53:55;;;;;;;0.80;0.80;;;;;;;2.66;84.74;99281.59;5094162;28;20123;-68
2023/02/02 03:56:24;;;;;;;0.32;0.32;;;;;;;2.66;85.93;99281.59;5094222;28;20131;-67
2023/02/02 03:58:53;;;;;;;0.40;0.40;;;;;;;2.62;85.81;99272.28;5094134;28;20097;-67
2023/02/02 04:01:28;;;;;;;0.47;0.47;;;;;;;2.61;85.65;99285.72;5093728;28;20048;-67
2023/02/02 04:03:58;;;;;;;0.20;0.20;;;;;;;2.64;85.88;99284.91;5094064;28;20127;-67
2023/02/02 04:06:27;;;;;;;0.50;0.50;;;;;;;2.65;84.96;99292.50;5093983;28;20048;-67
2023/02/02 04:08:57;;;;;;;0.30;0.30;;;;;;;2.65;85.18;99282.44;5094531;28;20071;-67
2023/02/02 04:11:26;;;;;;;0.20;0.20;;;;;;;2.64;85.82;99290.78;5093968;28;20532;-68
2023/02/02 04:13:55;;;;;;;0.40;0.40;;;;;;;2.67;85.88;99285.84;5094097;28;20508;-67
2023/02/02 04:16:23;;;;;;;0.52;0.52;;;;;;;2.65;86.06;99282.44;5092988;28;20062;-67
2023/02/02 04:18:52;;;;;;;0.30;0.30;;;;;;;2.62;84.94;99279.84;5094181;28;20036;-67
2023/02/02 04:21:21;;;;;;;0.30;0.30;;;;;;;2.60;86.00;99281.47;5093828;28;20123;-67
2023/02/02 04:23:50;;;;;;;0.40;0.40;;;;;;;2.59;85.57;99289.84;5094038;28;20036;-68
2023/02/02 04:26:20;;;;;;;0.40;0.40;;;;;;;2.64;85.79;99289.94;5093657;28;20390;-67
2023/02/02 04:28:50;;;;;;;0.30;0.30;;;;;;;2.67;85.20;99295.91;5094069;28;20401;-67
2023/02/02 04:31:18;;;;;;;0.30;0.30;;;;;;;2.67;85.18;99297.56;5093975;28;20434;-67
2023/02/02 04:33:47;;;;;;;0.30;0.30;;;;;;;2.66;85.70;99299.25;5093638;28;20040;-67
2023/02/02 04:36:16;;;;;;;0.20;0.20;;;;;;;2.68;85.21;99294.25;5093637;28;20039;-67
2023/02/02 04:38:49;;;;;;;0.43;0.43;;;;;;;2.73;85.90;99292.72;5093919;28;20127;-67
2023/02/02 04:41:20;;;;;;;0.47;0.47;;;;;;;2.71;85.56;99295.16;5093883;28;20044;-67
2023/02/02 04:43:49;;;;;;;0.50;0.50;;;;;;;2.69;85.68;99294.28;5093616;28;20048;-67
2023/02/02 04:46:18;;;;;;;0.50;0.50;;;;;;;2.68;84.85;99292.59;5093558;28;20097;-67
2023/02/02 04:48:49;;;;;;;0.40;0.40;;;;;;;2.69;85.68;99289.25;5093788;28;20566;-67
2023/02/02 04:51:18;;;;;;;0.55;0.55;;;;;;;2.69;85.79;99299.31;5094108;28;20493;-67
2023/02/02 04:53:47;;;;;;;0.93;0.93;;;;;;;2.70;85.61;99290.97;5093773;28;20066;-67
2023/02/02 04:56:18;;;;;;;0.32;0.32;;;;;;;2.70;85.33;99296.00;5093631;28;20490;-67
2023/02/02 04:58:48;;;;;;;0.30;0.30;;;;;;;2.67;85.17;99290.88;5094004;28;20055;-67
2023/02/02 05:01:19;;;;;;;0.47;0.47;;;;;;;2.66;85.43;99294.19;5093460;28;20048;-67
2023/02/02 05:03:49;;;;;;;0.47;0.47;;;;;;;2.67;86.01;99302.63;5093489;28;20044;-67
2023/02/02 05:06:19;;;;;;;0.65;0.65;;;;;;;2.63;84.97;99289.13;5093177;28;20064;-67
2023/02/02 05:08:49;;;;;;;1.45;1.33;;;;;;;2.60;85.23;99294.06;5093312;28;20059;-67
2023/02/02 05:11:20;;;;;;;0.38;0.38;;;;;;;2.52;85.38;99295.53;5093624;28;20040;-68
2023/02/02 05:13:52;;;;;;;0.50;0.50;;;;;;;2.46;85.09;99282.81;5093269;28;20056;-67
2023/02/02 05:16:22;;;;;;;0.73;0.73;;;;;;;2.39;85.97;99283.47;5093521;28;20078;-67
2023/02/02 05:18:53;;;;;;;0.30;0.30;;;;;;;2.32;85.65;99280.75;5093294;28;20101;-67
2023/02/02 05:21:22;;;;;;;0.30;0.30;;;;;;;2.30;86.35;99293.31;5093292;28;20136;-67
2023/02/02 05:23:51;;;;;;;0.75;0.75;;;;;;;2.30;85.86;99303.38;5093557;28;20043;-67
2023/02/02 05:26:23;;;;;;;0.77;0.77;;;;;;;2.29;86.44;99295.78;5093067;28;20139;-67
2023/02/02 05:28:54;;;;;;;0.38;0.38;;;;;;;2.21;86.24;99293.06;5096629;28;20051;-67
2023/02/02 05:31:23;;;;;;;0.30;0.30;;;;;;;2.27;86.61;99305.81;5096973;28;20105;-67
2023/02/02 05:33:52;;;;;;;0.35;0.35;;;;;;;2.30;85.84;99305.91;5097226;28;20502;-67
2023/02/02 05:36:20;;;;;;;0.25;0.25;;;;;;;2.34;86.60;99299.28;5096723;28;20036;-68
2023/02/02 05:38:49;;;;;;;0.30;0.30;;;;;;;2.35;86.24;99306.84;5096785;28;20070;-67
2023/02/02 05:41:18;;;;;;;1.00;1.00;;;;;;;2.37;86.42;99305.25;5096967;28;20444;-67
2023/02/02 05:43:47;;;;;;;0.40;0.40;;;;;;;2.35;86.55;99301.81;5096681;28;20035;-67
2023/02/02 05:46:17;;;;;;;0.47;0.47;;;;;;;2.38;85.46;99311.97;5096586;28;20292;-67
2023/02/02 05:48:46;;;;;;;0.40;0.40;;;;;;;2.40;86.02;99317.88;5095567;28;20067;-67
2023/02/02 05:51:18;;;;;;;0.30;0.30;;;;;;;2.40;86.32;99312.84;5096782;28;20448;-67
2023/02/02 05:53:48;;;;;;;0.40;0.40;;;;;;;2.46;85.76;99317.19;5097041;28;20044;-68
2023/02/02 05:56:17;;;;;;;6.22;1.88;;;;;;;2.51;85.99;99321.56;5096679;28;20036;-67
2023/02/02 05:58:48;;;;;;;0.30;0.30;;;;;;;2.51;85.15;99314.00;5096506;28;20447;-67
2023/02/02 06:01:20;;;;;;;0.30;0.30;;;;;;;2.52;85.40;99323.25;5096115;28;20872;-67
2023/02/02 06:03:49;;;;;;;0.50;0.50;;;;;;;2.54;85.52;99324.13;5096517;28;20052;-67
2023/02/02 06:06:18;;;;;;;0.45;0.45;;;;;;;2.56;85.38;99324.19;5096154;28;20040;-67
2023/02/02 06:08:47;;;;;;;0.30;0.30;;;;;;;2.58;85.36;99325.94;5096158;28;20551;-67
2023/02/02 06:11:17;;;;;;;0.40;0.40;;;;;;;2.57;84.53;99321.69;5096105;28;20073;-67
2023/02/02 06:13:46;;;;;;;0.30;0.30;;;;;;;2.56;84.29;99317.50;5096428;28;20044;-67
2023/02/02 06:16:15;;;;;;;0.33;0.33;;;;;;;2.54;85.06;99319.09;5095990;28;20097;-67
2023/02/02 06:18:45;;;;;;;0.30;0.30;;;;;;;2.54;84.03;99324.13;5096360;28;20063;-67
2023/02/02 06:21:14;;;;;;;0.30;0.30;;;;;;;2.52;84.15;99320.72;5095889;28;20055;-67
2023/02/02 06:23:44;;;;;;;0.30;0.30;;;;;;;2.51;84.39;99323.22;5095887;28;20042;-67
2023/02/02 06:26:14;;;;;;;0.30;0.30;;;;;;;2.51;84.21;99314.00;5095993;28;20071;-67
2023/02/02 06:28:43;;;;;;;0.30;0.30;;;;;;;2.48;84.26;99321.47;5094092;28;20036;-67
2023/02/02 06:31:12;;;;;;;0.52;0.40;;;;;;;2.52;83.39;99325.75;5095618;28;20047;-67
2023/02/02 06:33:41;;;;;;;0.40;0.40;;;;;;;2.52;83.92;99320.72;5095949;28;20062;-67
2023/02/02 06:36:11;;;;;;;0.50;0.50;;;;;;;2.54;83.86;99319.09;5095638;28;20037;-68
2023/02/02 06:38:40;;;;;;;0.40;0.40;;;;;;;2.57;83.84;99334.28;5095085;28;20044;-67
2023/02/02 06:41:09;;;;;;;0.30;0.30;;;;;;;2.56;82.96;99325.03;5095488;28;20097;-67
2023/02/02 06:43:38;;;;;;;0.30;0.30;;;;;;;2.59;83.32;99335.16;5095444;28;20551;-67
2023/02/02 06:46:06;;;;;;;0.20;0.20;;;;;;;2.61;83.59;99320.97;5095275;28;20058;-67
2023/02/02 06:48:35;;;;;;;0.20;0.20;;;;;;;2.61;82.74;99335.22;5095634;28;20043;-67
2023/02/02 06:51:05;;;;;;;0.82;0.82;;;;;;;2.60;82.62;99334.38;5095273;28;20094;-67
2023/02/02 06:53:35;;;;;;;1.58;1.48;;;;;;;2.62;83.13;99337.78;5095361;28;20559;-67
2023/02/02 06:56:07;;;;;;;0.45;0.45;;;;;;;2.64;82.86;99338.66;5095270;28;20056;-67
2023/02/02 06:58:36;;;;;;;0.40;0.40;;;;;;;2.65;82.78;99332.81;5095277;28;20101;-67
2023/02/02 07:01:07;;;;;;;0.98;0.98;;;;;;;2.68;83.00;99332.91;5094859;28;20047;-67
2023/02/02 07:03:37;;;;;;;0.40;0.40;;;;;;;2.70;83.30;99338.81;5095426;28;20121;-67
2023/02/02 07:06:13;;;;;;;;;;;;;;;2.72;83.13;99341.38;5095581;28;20574;-67
2023/02/02 07:08:44;;;;;;;0.20;0.20;;;;;;;2.75;82.26;99343.13;5095038;28;20011;-67
2023/02/02 07:11:19;;;;;;;0.30;0.30;;;;;;;2.78;82.08;99358.31;5095253;28;20371;-66
2023/02/02 07:13:49;;;;;;;0.20;0.20;;;;;;;2.80;82.95;99349.13;5094905;28;20044;-67
2023/02/02 07:16:19;;;;;;;0.40;0.40;;;;;;;2.82;82.95;99350.88;5094878;28;20044;-67
2023/02/02 07:18:48;;;;;;;0.30;0.30;;;;;;;2.79;82.51;99350.78;5094678;28;20089;-67
2023/02/02 07:21:19;;;;;;;0.30;0.30;;;;;;;2.85;82.49;99360.16;5095041;28;20047;-67
2023/02/02 07:23:50;;;;;;;0.30;0.30;;;;;;;2.89;81.97;99366.97;5093791;28;20427;-67
2023/02/02 07:26:20;;;;;;;1.38;0.88;;;;;;;2.90;82.49;99368.69;5094542;28;20051;-67
2023/02/02 07:28:49;;;;;;;0.20;0.20;;;;;;;2.95;82.14;99375.53;5094662;28;20059;-67
2023/02/02 07:31:19;;;;;;;;;;;;;;;2.99;82.56;99369.78;5095213;28;20051;-67
2023/02/02 07:33:48;;;;;;;0.30;0.30;;;;;;;3.03;82.02;99370.69;5094883;28;19928;-67
2023/02/02 07:36:19;;;;;;;0.30;0.30;;;;;;;3.08;82.27;99369.13;5094727;28;20036;-67
2023/02/02 07:38:52;;;;;;;2.47;0.70;;;;;;;3.12;81.45;99381.00;5094466;28;20047;-67
2023/02/02 07:41:22;;;;;;;0.20;0.20;;;;;;;3.20;81.45;99376.97;5094765;28;20549;-67
2023/02/02 07:43:51;;;;;;;0.30;0.30;;;;;;;3.18;81.47;99366.88;5094282;28;20491;-67
2023/02/02 07:46:20;;;;;;;0.30;0.30;;;;;;;3.22;81.76;99375.34;5094227;28;20079;-67
2023/02/02 07:48:49;;;;;;;0.30;0.30;;;;;;;3.27;81.65;99381.34;5094583;28;20044;-67
2023/02/02 07:51:18;;;;;;;0.23;0.23;;;;;;;3.30;80.79;99386.47;5094129;28;20040;-67
2023/02/02 07:53:49;;;;;;;0.20;0.20;;;;;;;3.34;81.23;99390.75;5094108;28;20513;-67
2023/02/02 07:56:22;;;;;;;0.40;0.40;;;;;;;3.39;81.86;99386.66;5094134;28;20130;-67
2023/02/02 07:58:52;;;;;;;0.20;0.20;;;;;;;3.46;81.64;99386.00;5094086;28;20048;-67
2023/02/02 08:01:22;;;;;;;0.35;0.35;;;;;;;3.55;80.97;99388.72;5094086;28;20048;-67
2023/02/02 08:03:52;;;;;;;0.20;0.20;;;;;;;3.59;80.80;99390.50;5094369;28;20043;-67
2023/02/02 08:06:23;;;;;;;0.40;0.40;;;;;;;3.61;80.81;99403.13;5090898;28;20069;-67
2023/02/02 08:08:52;;;;;;;0.30;0.30;;;;;;;3.63;81.02;99397.31;5087278;28;20051;-67
2023/02/02 08:11:24;;;;;;;0.20;0.20;;;;;;;3.62;80.08;99390.56;5072830;28;20044;-67
2023/02/02 08:13:54;;;;;;;0.30;0.30;;;;;;;3.69;80.88;99401.66;5073852;28;20064;-67
2023/02/02 08:16:24;;;;;;;0.35;0.35;;;;;;;3.73;80.41;99399.22;5073764;28;20059;-67
2023/02/02 08:18:53;;;;;;;;;;;;;;;3.75;80.45;99405.16;5074249;28;20398;-67
2023/02/02 08:21:22;;;;;;;0.40;0.40;;;;;;;3.72;80.58;99412.66;5073851;28;19920;-67
2023/02/02 08:23:53;;;;;;;0.30;0.30;;;;;;;3.75;80.11;99410.19;5080488;28;20044;-69
2023/02/02 08:26:25;;;;;;;0.22;0.22;;;;;;;3.77;80.17;99416.13;5093773;28;20047;-67
2023/02/02 08:28:56;;;;;;;0.30;0.30;;;;;;;3.80;80.27;99413.66;5092252;28;20047;-68
2023/02/02 08:31:28;;;;;;;0.28;0.28;;;;;;;3.86;79.55;99416.31;5073322;28;20048;-67
2023/02/02 08:33:57;;;;;;;0.47;0.47;;;;;;;3.91;79.92;99419.78;5073690;28;20060;-67
2023/02/02 08:36:29;;;;;;;0.30;0.30;;;;;;;3.95;79.82;99411.50;5073467;28;20045;-67
2023/02/02 08:39:01;;;;;;;0.30;0.30;;;;;;;3.98;79.28;99391.34;5074207;28;20055;-68
2023/02/02 08:41:32;;;;;;;0.50;0.50;;;;;;;4.05;79.56;99410.84;5084815;28;20072;-68
2023/02/02 08:44:05;;;;;;;0.20;0.20;;;;;;;4.22;79.34;99405.28;5073259;28;20068;-67
2023/02/02 08:46:33;;;;;;;0.38;0.38;;;;;;;4.33;78.57;99393.72;5073527;28;20041;-67
2023/02/02 08:49:02;;;;;;;0.35;0.35;;;;;;;4.41;78.90;99397.25;5073623;28;20033;-67
2023/02/02 08:51:31;;;;;;;0.30;0.30;;;;;;;4.47;78.51;99407.44;5073182;28;20051;-67
2023/02/02 08:54:00;;;;;;;0.40;0.40;;;;;;;4.51;77.71;99405.00;5073171;28;20075;-67
2023/02/02 08:56:29;;;;;;;0.35;0.35;;;;;;;4.56;77.40;99412.69;5073193;28;20127;-67
2023/02/02 08:58:59;;;;;;;0.20;0.20;;;;;;;4.60;77.47;99400.16;5072299;28;20417;-67
2023/02/02 09:01:30;;;;;;;9.13;1.25;;;;;;;4.68;77.08;99400.25;5072940;28;20509;-67
2023/02/02 09:04:03;;;;;;;0.20;0.20;;;;;;;4.74;76.57;99407.97;5082892;28;20055;-67
2023/02/02 09:06:34;;;;;;;0.30;0.30;;;;;;;4.82;76.03;99408.13;5097251;28;20044;-67
2023/02/02 09:09:05;;;;;;;0.22;0.22;;;;;;;4.90;76.23;99399.81;5097334;28;20075;-67
2023/02/02 09:11:35;;;;;;;0.20;0.20;;;;;;;4.95;75.97;99417.59;5097229;28;20048;-67
2023/02/02 09:14:06;;;;;;;0.30;0.30;;;;;;;4.98;75.84;99405.88;5092803;28;20498;-68
2023/02/02 09:16:36;;;;;;;0.40;0.40;;;;;;;4.99;75.30;99404.19;5097265;28;20036;-67
2023/02/02 09:19:05;;;;;;;1.15;1.05;;;;;;;5.06;75.23;99406.84;5097130;28;20039;-67
2023/02/02 09:21:35;;;;;;;5.07;2.00;;;;;;;5.12;74.58;99412.00;5097254;28;20044;-67
2023/02/02 09:24:09;;;;;;;0.73;0.73;;;;;;;5.13;74.91;99407.81;5097391;28;20367;-67
2023/02/02 09:26:39;;;;;;;0.22;0.22;;;;;;;5.09;73.68;99396.78;5096907;28;20048;-67
2023/02/02 09:29:16;;;;;;;0.77;0.52;;;;;;;5.16;73.44;99413.75;5096671;28;20047;-67
2023/02/02 09:31:45;;;;;;;0.73;0.73;;;;;;;5.19;73.21;99411.28;5096906;28;20517;-67
2023/02/02 09:34:16;;;;;;;0.30;0.30;;;;;;;5.23;73.07;99410.50;5096653;28;20101;-67
2023/02/02 09:36:45;;;;;;;0.50;0.50;;;;;;;5.22;72.66;99407.94;5097137;28;20044;-67
2023/02/02 09:39:15;;;;;;;0.20;0.20;;;;;;;5.25;72.48;99413.06;5096799;28;20062;-66
2023/02/02 09:42:06;;;;;;;0.47;0.47;;;;;;;5.31;72.27;99424.13;5096780;28;20044;-67
2023/02/02 09:44:56;;;;;;;0.17;0.17;;;;;;;5.37;72.22;99415.78;5096916;28;20044;-66
2023/02/02 09:47:33;;;;;;;0.20;0.20;;;;;;;5.47;72.49;99425.19;5094401;28;20048;-67
2023/02/02 09:50:09;;;;;;;0.90;0.75;;;;;;;5.59;72.24;99419.50;5086803;28;20055;-67
2023/02/02 09:52:42;;;;;;;0.25;0.25;;;;;;;5.83;71.44;99419.84;5083192;28;20045;-67
2023/02/02 09:55:18;;;;;;;0.20;0.20;;;;;;;5.91;70.94;99419.13;5076188;28;20048;-67
2023/02/02 09:57:51;;;;;;;6.32;2.90;;;;;;;6.14;71.19;99424.53;5076484;28;20036;-67
2023/02/02 10:00:28;;;;;;;0.30;0.30;;;;;;;6.11;70.87;99416.00;5076121;28;20498;-67
2023/02/02 10:03:02;;;;;;;0.30;0.30;;;;;;;6.11;70.50;99427.00;5075990;28;20135;-68
2023/02/02 10:05:42;;;;;;;0.57;0.57;;;;;;;6.13;70.50;99420.28;5087513;28;20048;-68
2023/02/02 10:08:20;;;;;;;0.40;0.40;;;;;;;6.08;70.49;99419.34;5096298;28;20485;-68
2023/02/02 10:11:13;;;;;;;0.85;0.82;;;;;;;6.09;70.05;99419.38;5096200;28;20073;-68
2023/02/02 10:13:44;;;;;;;0.47;0.47;;;;;;;6.07;69.65;99415.97;5095099;28;20044;-68
2023/02/02 10:16:17;;;;;;;0.40;0.40;;;;;;;6.05;70.08;99421.84;5095846;28;20051;-68
2023/02/02 10:18:51;;;;;;;0.20;0.20;;;;;;;6.06;69.98;99414.28;5096236;28;20051;-67
2023/02/02 10:21:32;;;;;;;0.85;0.85;;;;;;;6.06;69.24;99405.81;5096006;28;20040;-67
2023/02/02 10:24:03;;;;;;;1.13;1.02;;;;;;;6.06;69.45;99415.97;5096295;28;20040;-68
2023/02/02 10:26:40;;;;;;;2.88;1.98;;;;;;;5.88;69.19;99393.75;5096069;28;20135;-67
2023/02/02 10:29:16;;;;;;;0.40;0.40;;;;;;;5.99;68.93;99415.03;5095892;28;20051;-68
2023/02/02 10:31:59;;;;;;;2.97;2.22;;;;;;;5.98;69.41;99412.47;5095680;28;20044;-67
2023/02/02 10:34:38;;;;;;;2.58;1.58;;;;;;;6.06;69.04;99408.34;5096048;28;20208;-68
2023/02/02 10:37:21;;;;;;;0.40;0.40;;;;;;;6.23;69.28;99406.88;5095752;28;20055;-67
2023/02/02 10:40:07;;;;;;;1.15;1.02;;;;;;;6.41;68.59;99402.03;5095609;28;20050;-68
2023/02/02 10:43:44;;;;;;;0.30;0.30;;;;;;;6.69;68.08;99409.06;5095629;28;20048;-68
2023/02/02 10:45:43;;;;;;;1.95;1.08;;;;;;;6.81;67.02;99407.53;5094038;28;20044;-67
2023/02/02 10:48:17;;;;;;;0.75;0.75;;;;;;;6.89;67.69;99410.97;5095284;28;20036;-68
2023/02/02 10:50:49;;;;;;;0.60;0.60;;;;;;;7.09;67.55;99402.72;5095432;28;20498;-68
2023/02/02 10:53:19;;;;;;;0.55;0.55;;;;;;;7.23;67.02;99403.66;5095236;28;20105;-68
2023/02/02 10:55:53;;;;;;;0.88;0.88;;;;;;;7.16;65.72;99403.59;5095207;28;20139;-67
2023/02/02 10:58:30;;;;;;;1.08;0.85;;;;;;;7.07;65.81;99401.00;5095189;28;20048;-68
2023/02/02 11:01:00;;;;;;;0.30;0.30;;;;;;;7.02;65.87;99405.19;5094859;28;20097;-67
2023/02/02 11:03:32;;;;;;;0.38;0.38;;;;;;;6.98;65.19;99396.66;5095098;28;20052;-67
2023/02/02 11:08:44;;;;;;;0.40;0.40;;;;;;;6.93;65.74;99392.41;5094339;28;20486;-67
2023/02/02 11:11:20;;;;;;;0.20;0.20;;;;;;;6.83;65.68;99405.84;5093940;28;20450;-67
2023/02/02 11:13:54;;;;;;;0.60;0.60;;;;;;;6.87;65.70;99410.09;5094862;28;20074;-68
2023/02/02 11:16:28;;;;;;;0.85;0.80;;;;;;;6.86;65.61;99410.97;5094945;28;20051;-67
2023/02/02 11:19:24;;;;;;;0.30;0.30;;;;;;;6.97;65.27;99404.28;5094781;28;20063;-67
2023/02/02 11:21:56;;;;;;;0.43;0.43;;;;;;;6.89;65.01;99411.81;5095030;28;20543;-67
2023/02/02 11:24:27;;;;;;;0.40;0.40;;;;;;;6.80;65.59;99403.28;5094785;28;20135;-68
2023/02/02 11:27:00;;;;;;;0.35;0.35;;;;;;;6.85;65.39;99414.31;5089643;28;20429;-68
2023/02/02 11:29:36;;;;;;;0.30;0.30;;;;;;;6.88;65.71;99415.22;5093233;28;20044;-68
2023/02/02 11:32:20;;;;;;;0.88;0.88;;;;;;;6.89;65.28;99416.03;5086100;28;20048;-67
2023/02/02 11:35:14;;;;;;;0.20;0.20;;;;;;;6.85;65.57;99414.31;5090117;28;20072;-67
2023/02/02 11:38:01;;;;;;;0.40;0.40;;;;;;;6.90;65.49;99408.47;5074464;28;20051;-68
2023/02/02 11:40:37;;;;;;;0.55;0.55;;;;;;;6.82;65.62;99410.06;5074254;28;20152;-67
2023/02/02 11:43:16;;;;;;;0.75;0.75;;;;;;;6.81;65.94;99407.53;5074126;28;20045;-67
2023/02/02 11:45:52;;;;;;;0.63;0.63;;;;;;;6.82;65.89;99411.75;5074104;28;20045;-68
2023/02/02 11:48:24;;;;;;;0.57;0.52;;;;;;;6.78;65.62;99403.28;5074110;28;20067;-67
2023/02/02 11:50:56;;;;;;;0.60;0.60;;;;;;;6.76;66.16;99410.00;5074263;28;20437;-67
2023/02/02 11:53:29;;;;;;;0.30;0.30;;;;;;;6.65;65.98;99402.28;5073966;28;20072;-67
2023/02/02 11:56:01;;;;;;;0.40;0.40;;;;;;;6.63;66.03;99398.88;5074214;28;20071;-67
2023/02/02 11:58:42;;;;;;;0.52;0.50;;;;;;;6.59;65.77;99399.69;5081487;28;20044;-68
2023/02/02 12:01:26;;;;;;;0.30;0.30;;;;;;;6.63;66.46;99398.88;5093736;28;20056;-68
2023/02/02 12:03:56;;;;;;;0.20;0.20;;;;;;;6.62;66.04;99399.72;5094454;28;20139;-68
2023/02/02 12:06:36;;;;;;;0.30;0.30;;;;;;;6.59;66.35;99402.25;5094421;28;20044;-67
2023/02/02 12:09:13;;;;;;;0.30;0.30;;;;;;;6.56;66.30;99403.88;5087369;28;20068;-67
2023/02/02 12:11:54;;;;;;;0.50;0.50;;;;;;;6.53;66.43;99393.69;5079041;28;20041;-68
2023/02/02 12:14:33;;;;;;;0.30;0.30;;;;;;;6.49;66.51;99397.91;5073664;28;20052;-67
2023/02/02 12:17:14;;;;;;;0.23;0.23;;;;;;;6.42;67.00;99388.53;5073738;28;20090;-67
2023/02/02 12:20:15;;;;;;;0.30;0.30;;;;;;;6.46;67.14;99395.31;5073987;28;20080;-68
2023/02/02 12:23:00;;;;;;;1.95;1.40;;;;;;;6.47;67.13;99394.50;5073382;28;20044;-67